Airfield :
LOGIN :

Register | Disclaimer

   EN    FR    IT 

 










Legend :    VFR   Marginal VFR   IFR   Intensive IFR   Very Intensive IFR
Visi :
Ceiling :
>= 8 km
>= 3000ft
5 to 8 km
1000 to 3000 ft
1500m to 5 km
500 to 1000 ft
800 to 1500m
200 to 500 ft
< 800m
< 200 ft
Symbols :   Thunderstorms  Fog  Heavy snow  Heavy precipitations  Wind > 20 kt
SIGMETs :     Misc.  Thunderstorms  Icing  Turbulence  Mountain Waves  Volcanic Ashes






- Airport Elevation : 622 ft
- IATA code : SVO


UUEE - Sheremetyevo International

CURRENT METAR :
  • 071030Z 23006MPS 9999 BKN033 05/M09 Q1032 R24L/CLRD62 NOSIG

EXPIRED METARs :
  • 071000Z 23005MPS 9999 BKN039 05/M10 Q1033 R24L/CLRD62 NOSIG
  • 070930Z 23005MPS 9999 BKN046 04/M10 Q1033 R24L/CLRD62 NOSIG
  • 070900Z 25004MPS 210V270 CAVOK 04/M10 Q1034 R24L/CLRD62 NOSIG
  • 070830Z 25004MPS CAVOK 04/M10 Q1034 R24L/CLRD62 NOSIG
  • 070800Z 24006MPS CAVOK 04/M12 Q1034 R24L/CLRD62 NOSIG

TAF TAF UUEE
Valid from the 07 at 09:00 until the 08 at 09:00 UTC


070751Z 0709/0809 23005G12MPS 9999 SCT030 TX10/0713Z TN01/0803Z
TEMPO 0801/0806 25008G14MPS -SHRA SCT015CB
BECMG 0806/0808 32007G12MPS



MET'MAP, your aeronautical weather chart ! - Copyright ORBIFLY December 2007 - Disclaimer

ORBIFLY MET'MAP TEAM :

Programming & Development : Alexandra Zaïnal
Concept & original design : Baudouin d'Aumeries
Assistance for programming : Marc-Olivier Méhu
Technical & hardware support : Manuel Goepfert

Contact : metmap@orbifly.com




SOURCES & CREDITS :

   NOAA